createdAt,value
2022-12-11T00:02:13.913Z,99193.41
2022-12-11T00:04:40.643Z,99184.19
2022-12-11T00:07:07.403Z,99186.53
2022-12-11T00:09:34.083Z,99192.16
2022-12-11T00:12:02.537Z,99196.13
2022-12-11T00:14:29.646Z,99191.00
2022-12-11T00:16:56.379Z,99198.50
2022-12-11T00:19:23.411Z,99191.97
2022-12-11T00:21:50.083Z,99194.19
2022-12-11T00:24:16.859Z,99188.03
2022-12-11T00:26:43.525Z,99193.03
2022-12-11T00:29:14.572Z,99186.41
2022-12-11T00:31:42.241Z,99191.03
2022-12-11T00:34:09.488Z,99188.75
2022-12-11T00:36:36.140Z,99185.06
2022-12-11T00:39:03.109Z,99190.28
2022-12-11T00:41:30.042Z,99184.78
2022-12-11T00:43:56.888Z,99183.34
2022-12-11T00:46:23.861Z,99174.25
2022-12-11T00:48:50.821Z,99172.22
2022-12-11T00:51:18.130Z,99174.25
2022-12-11T00:53:44.860Z,99179.63
2022-12-11T00:56:14.138Z,99172.97
2022-12-11T00:58:40.780Z,99180.28
2022-12-11T01:01:23.632Z,99185.00
2022-12-11T01:03:52.168Z,99174.91
2022-12-11T01:06:22.002Z,99177.97
2022-12-11T01:08:49.016Z,99176.56
2022-12-11T01:11:17.285Z,99179.25
2022-12-11T01:13:43.974Z,99171.56
2022-12-11T01:16:16.314Z,99173.63
2022-12-11T01:18:43.061Z,99173.25
2022-12-11T01:21:13.447Z,99182.53
2022-12-11T01:23:40.670Z,99167.59
2022-12-11T01:26:13.527Z,99168.00
2022-12-11T01:28:41.539Z,99166.75
2022-12-11T01:31:10.186Z,99175.28
2022-12-11T01:33:37.534Z,99171.63
2022-12-11T01:36:16.800Z,99168.72
2022-12-11T01:38:44.011Z,99160.88
2022-12-11T01:41:10.810Z,99170.00
2022-12-11T01:44:00.793Z,99161.91
2022-12-11T01:46:28.739Z,99159.44
2022-12-11T01:48:56.364Z,99155.34
2022-12-11T01:51:24.408Z,99166.09
2022-12-11T01:53:57.300Z,99164.75
2022-12-11T01:56:24.793Z,99160.88
2022-12-11T01:58:56.485Z,99166.94
2022-12-11T02:01:37.183Z,99170.13
2022-12-11T02:04:04.682Z,99160.81
2022-12-11T02:06:43.236Z,99161.03
2022-12-11T02:09:14.727Z,99164.34
2022-12-11T02:12:19.949Z,99169.69
2022-12-11T02:15:11.414Z,99173.66
2022-12-11T02:17:47.000Z,99167.03
2022-12-11T02:20:40.416Z,99170.38
2022-12-11T02:23:09.693Z,99167.91
2022-12-11T02:26:01.700Z,99168.53
2022-12-11T02:28:46.292Z,99173.09
2022-12-11T02:31:16.962Z,99177.28
2022-12-11T02:33:59.635Z,99175.41
2022-12-11T02:36:30.540Z,99178.53
2022-12-11T02:39:01.174Z,99178.94
2022-12-11T02:41:30.372Z,99172.38
2022-12-11T02:43:58.042Z,99172.59
2022-12-11T02:46:25.590Z,99169.50
2022-12-11T02:48:54.321Z,99166.41
2022-12-11T02:51:28.662Z,99163.50
2022-12-11T02:53:59.066Z,99159.38
2022-12-11T02:56:33.361Z,99155.22
2022-12-11T02:59:08.005Z,99148.22
2022-12-11T03:01:34.887Z,99152.13
2022-12-11T03:04:01.810Z,99150.69
2022-12-11T03:06:36.336Z,99150.69
2022-12-11T03:09:05.158Z,99140.28
2022-12-11T03:11:31.761Z,99138.25
2022-12-11T03:13:59.470Z,99134.31
2022-12-11T03:17:00.114Z,99139.69
2022-12-11T03:19:36.648Z,99134.50
2022-12-11T03:22:14.568Z,99129.34
2022-12-11T03:24:46.375Z,99130.59
2022-12-11T03:27:26.836Z,99121.28
2022-12-11T03:30:05.606Z,99117.34
2022-12-11T03:32:51.776Z,99125.63
2022-12-11T03:35:27.980Z,99123.38
2022-12-11T03:37:58.056Z,99116.94
2022-12-11T03:40:28.022Z,99117.97
2022-12-11T03:42:57.565Z,99119.63
2022-12-11T03:45:27.257Z,99119.25
2022-12-11T03:47:56.866Z,99113.00
2022-12-11T03:50:28.577Z,99117.59
2022-12-11T03:52:55.547Z,99105.94
2022-12-11T03:55:22.722Z,99115.94
2022-12-11T03:57:49.705Z,99111.75
2022-12-11T04:00:20.273Z,99111.34
2022-12-11T04:03:13.007Z,99106.78
2022-12-11T04:05:52.362Z,99110.53
2022-12-11T04:08:23.241Z,99106.38
2022-12-11T04:11:13.387Z,99108.88
2022-12-11T04:13:41.351Z,99112.41
2022-12-11T04:16:08.610Z,99110.53
2022-12-11T04:18:54.128Z,99114.69
2022-12-11T04:21:39.786Z,99103.28
2022-12-11T04:24:16.228Z,99110.34
2022-12-11T04:26:45.087Z,99110.78
2022-12-11T04:29:12.453Z,99116.16
2022-12-11T04:31:39.724Z,99111.38
2022-12-11T04:34:06.672Z,99115.31
2022-12-11T04:36:33.497Z,99110.97
2022-12-11T04:39:00.246Z,99116.56
2022-12-11T04:41:28.970Z,99114.91
2022-12-11T04:43:55.637Z,99111.38
2022-12-11T04:46:24.491Z,99117.22
2022-12-11T04:48:57.391Z,99109.28
2022-12-11T04:51:24.661Z,99108.06
2022-12-11T04:53:51.514Z,99101.63
2022-12-11T04:56:19.186Z,99107.47
2022-12-11T04:58:47.082Z,99095.19
2022-12-11T05:01:20.200Z,99095.19
2022-12-11T05:03:48.890Z,99098.13
2022-12-11T05:06:15.752Z,99092.91
2022-12-11T05:08:43.458Z,99091.69
2022-12-11T05:11:14.545Z,99093.34
2022-12-11T05:13:43.689Z,99090.03
2022-12-11T05:16:13.380Z,99098.13
2022-12-11T05:18:40.483Z,99098.75
2022-12-11T05:21:11.110Z,99086.25
2022-12-11T05:23:38.584Z,99094.16
2022-12-11T05:26:17.507Z,99096.44
2022-12-11T05:28:44.980Z,99095.19
2022-12-11T05:31:17.483Z,99093.56
2022-12-11T05:33:46.042Z,99092.91
2022-12-11T05:36:22.650Z,99086.50
2022-12-11T05:38:50.136Z,99087.09
2022-12-11T05:41:19.483Z,99089.19
2022-12-11T05:43:48.659Z,99082.31
2022-12-11T05:46:19.404Z,99084.00
2022-12-11T05:48:48.976Z,99085.25
2022-12-11T05:51:17.289Z,99082.13
2022-12-11T05:53:45.218Z,99082.53
2022-12-11T05:56:15.618Z,99081.31
2022-12-11T05:58:43.378Z,99088.56
2022-12-11T06:01:13.152Z,99079.22
2022-12-11T06:03:39.987Z,99089.81
2022-12-11T06:06:07.654Z,99088.16
2022-12-11T06:08:34.984Z,99087.72
2022-12-11T06:11:02.334Z,99088.75
2022-12-11T06:13:29.338Z,99087.53
2022-12-11T06:15:56.028Z,99093.53
2022-12-11T06:18:22.744Z,99091.47
2022-12-11T06:20:49.395Z,99094.38
2022-12-11T06:23:16.037Z,99090.84
2022-12-11T06:25:42.705Z,99089.59
2022-12-11T06:28:09.436Z,99087.34
2022-12-11T06:30:37.624Z,99092.28
2022-12-11T06:33:06.520Z,99087.72
2022-12-11T06:35:37.355Z,99092.94
2022-12-11T06:38:08.652Z,99088.16
2022-12-11T06:40:35.312Z,99083.78
2022-12-11T06:43:02.026Z,99084.00
2022-12-11T06:45:28.739Z,99076.09
2022-12-11T06:47:55.759Z,99082.13
2022-12-11T06:50:22.450Z,99079.41
2022-12-11T06:52:49.092Z,99079.84
2022-12-11T06:55:15.781Z,99080.25
2022-12-11T06:57:42.449Z,99078.59
2022-12-11T07:00:09.845Z,99080.03
2022-12-11T07:02:36.558Z,99076.13
2022-12-11T07:05:05.855Z,99076.91
2022-12-11T07:07:32.874Z,99086.28
2022-12-11T07:10:07.325Z,99093.97
2022-12-11T07:12:34.914Z,99093.97
2022-12-11T07:15:03.876Z,99101.63
2022-12-11T07:17:30.929Z,99096.84
2022-12-11T07:19:57.725Z,99096.03
2022-12-11T07:22:24.553Z,99084.41
2022-12-11T07:24:51.314Z,99092.28
2022-12-11T07:27:18.060Z,99088.53
2022-12-11T07:29:45.108Z,99088.53
2022-12-11T07:32:11.839Z,99091.22
2022-12-11T07:34:38.930Z,99098.47
2022-12-11T07:37:05.729Z,99100.38
2022-12-11T07:39:32.388Z,99101.00
2022-12-11T07:41:59.061Z,99101.41
2022-12-11T07:44:26.194Z,99098.09
2022-12-11T07:46:52.820Z,99103.88
2022-12-11T07:49:19.487Z,99105.53
2022-12-11T07:51:46.271Z,99110.75
2022-12-11T07:54:16.730Z,99099.75
2022-12-11T07:56:53.207Z,99109.28
2022-12-11T07:59:21.113Z,99118.00
2022-12-11T08:01:47.993Z,99115.09
2022-12-11T08:04:15.960Z,99127.13
2022-12-11T08:06:43.803Z,99126.31
2022-12-11T08:09:19.080Z,99130.03
2022-12-11T08:11:49.958Z,99115.09
2022-12-11T08:14:18.884Z,99116.53
2022-12-11T08:16:45.681Z,99122.59
2022-12-11T08:19:13.394Z,99118.00
2022-12-11T08:21:40.505Z,99118.22
2022-12-11T08:24:08.120Z,99118.00
2022-12-11T08:26:34.966Z,99116.16
2022-12-11T08:29:03.164Z,99120.91
2022-12-11T08:31:30.659Z,99122.56
2022-12-11T08:33:58.143Z,99116.16
2022-12-11T08:36:25.549Z,99131.50
2022-12-11T08:38:54.852Z,99126.09
2022-12-11T08:41:27.502Z,99123.19
2022-12-11T08:43:55.414Z,99125.88
2022-12-11T08:46:27.750Z,99115.94
2022-12-11T08:48:54.973Z,99120.72
2022-12-11T08:51:24.219Z,99124.41
2022-12-11T08:53:51.445Z,99127.53
2022-12-11T08:56:20.854Z,99130.88
2022-12-11T08:58:47.918Z,99121.75
2022-12-11T09:01:21.781Z,99123.44
2022-12-11T09:03:49.781Z,99130.06
2022-12-11T09:06:18.989Z,99123.22
2022-12-11T09:08:52.305Z,99128.44
2022-12-11T09:11:25.957Z,99122.81
2022-12-11T09:13:53.420Z,99119.72
2022-12-11T09:16:22.503Z,99128.63
2022-12-11T09:18:51.367Z,99134.03
2022-12-11T09:21:21.445Z,99122.44
2022-12-11T09:23:48.172Z,99125.13
2022-12-11T09:26:17.538Z,99127.81
2022-12-11T09:28:46.942Z,99130.94
2022-12-11T09:31:15.288Z,99131.78
2022-12-11T09:33:42.037Z,99120.53
2022-12-11T09:36:10.729Z,99125.53
2022-12-11T09:38:37.967Z,99126.16
2022-12-11T09:41:30.974Z,99115.56
2022-12-11T09:44:21.024Z,99118.47
2022-12-11T09:46:49.078Z,99116.81
2022-12-11T09:49:47.131Z,99124.06
2022-12-11T09:52:32.200Z,99123.84
2022-12-11T09:55:15.023Z,99127.81
2022-12-11T09:58:00.194Z,99121.78
2022-12-11T10:00:37.605Z,99127.59
2022-12-11T10:03:19.571Z,99129.25
2022-12-11T10:06:04.284Z,99131.34
2022-12-11T10:08:53.451Z,99136.53
2022-12-11T10:11:31.946Z,99132.78
2022-12-11T10:14:40.521Z,99131.16
2022-12-11T10:17:17.961Z,99124.69
2022-12-11T10:19:46.529Z,99128.00
2022-12-11T10:22:34.960Z,99132.19
2022-12-11T10:25:11.503Z,99134.66
2022-12-11T10:27:40.602Z,99124.28
2022-12-11T10:30:13.366Z,99126.16
2022-12-11T10:32:48.895Z,99126.34
2022-12-11T10:35:31.633Z,99130.31
2022-12-11T10:38:20.646Z,99134.25
2022-12-11T10:40:53.749Z,99134.03
2022-12-11T10:43:20.540Z,99131.75
2022-12-11T10:45:54.886Z,99130.09
2022-12-11T10:48:22.226Z,99128.84
2022-12-11T10:51:02.717Z,99135.91
2022-12-11T10:53:31.429Z,99136.94
2022-12-11T10:55:58.690Z,99129.28
2022-12-11T10:58:28.841Z,99130.31
2022-12-11T11:01:15.699Z,99130.75
2022-12-11T11:04:15.508Z,99124.09
2022-12-11T11:06:42.304Z,99132.19
2022-12-11T11:09:30.197Z,99128.22
2022-12-11T11:11:56.867Z,99125.09
2022-12-11T11:14:25.308Z,99123.44
2022-12-11T11:16:56.848Z,99115.38
2022-12-11T11:19:37.066Z,99107.25
2022-12-11T11:22:16.243Z,99113.91
2022-12-11T11:25:05.219Z,99120.97
2022-12-11T11:27:49.417Z,99113.50
2022-12-11T11:30:29.643Z,99108.69
2022-12-11T11:33:14.217Z,99111.19
2022-12-11T11:35:53.022Z,99109.72
2022-12-11T11:38:23.535Z,99101.84
2022-12-11T11:41:14.665Z,99107.66
2022-12-11T11:43:46.578Z,99102.50
2022-12-11T11:46:28.858Z,99103.31
2022-12-11T11:49:13.814Z,99101.44
2022-12-11T11:51:53.551Z,99112.03
2022-12-11T11:54:40.008Z,99108.91
2022-12-11T11:57:29.792Z,99106.00
2022-12-11T12:00:10.102Z,99106.81
2022-12-11T12:02:38.150Z,99110.16
2022-12-11T12:05:05.603Z,99100.16
2022-12-11T12:08:14.319Z,99106.44
2022-12-11T12:10:52.978Z,99100.19
2022-12-11T12:13:55.356Z,99091.03
2022-12-11T12:16:54.211Z,99101.41
2022-12-11T12:19:29.871Z,99092.69
2022-12-11T12:22:01.004Z,99094.13
2022-12-11T12:24:33.646Z,99096.00
2022-12-11T12:27:51.192Z,99096.22
2022-12-11T12:30:22.406Z,99101.22
2022-12-11T12:33:18.717Z,99092.94
2022-12-11T12:36:06.436Z,99091.88
2022-12-11T12:38:48.826Z,99093.53
2022-12-11T12:41:24.160Z,99093.53
2022-12-11T12:44:06.018Z,99090.22
2022-12-11T12:47:24.622Z,99089.38
2022-12-11T12:49:54.472Z,99096.47
2022-12-11T12:52:33.245Z,99092.94
2022-12-11T12:55:15.073Z,99101.44
2022-12-11T12:57:48.115Z,99093.13
2022-12-11T13:00:30.423Z,99088.97
2022-12-11T13:02:58.346Z,99090.22
2022-12-11T13:05:32.178Z,99087.09
2022-12-11T13:08:06.532Z,99087.91
2022-12-11T13:10:37.290Z,99091.06
2022-12-11T13:13:06.277Z,99096.47
2022-12-11T13:15:43.820Z,99089.59
2022-12-11T13:18:36.967Z,99096.88
2022-12-11T13:21:34.026Z,99095.41
2022-12-11T13:24:15.349Z,99097.47
2022-12-11T13:26:42.487Z,99098.09
2022-12-11T13:29:39.109Z,99102.25
2022-12-11T13:32:18.106Z,99101.41
2022-12-11T13:34:54.614Z,99098.09
2022-12-11T13:37:34.385Z,99100.56
2022-12-11T13:40:06.169Z,99102.22
2022-12-11T13:42:53.865Z,99096.84
2022-12-11T13:45:29.901Z,99097.25
2022-12-11T13:47:58.858Z,99099.72
2022-12-11T13:50:31.739Z,99094.31
2022-12-11T13:53:01.490Z,99091.19
2022-12-11T13:55:31.232Z,99089.31
2022-12-11T13:57:58.764Z,99082.66
2022-12-11T14:00:30.222Z,99076.78
2022-12-11T14:03:01.541Z,99084.72
2022-12-11T14:05:29.037Z,99081.78
2022-12-11T14:07:58.755Z,99089.66
2022-12-11T14:10:32.182Z,99086.34
2022-12-11T14:13:06.928Z,99091.75
2022-12-11T14:15:36.260Z,99086.56
2022-12-11T14:18:05.408Z,99090.91
2022-12-11T14:20:34.233Z,99099.63
2022-12-11T14:23:16.211Z,99095.25
2022-12-11T14:25:53.439Z,99094.03
2022-12-11T14:28:21.188Z,99096.50
2022-12-11T14:30:51.835Z,99100.50
2022-12-11T14:33:23.067Z,99093.44
2022-12-11T14:35:52.290Z,99095.50
2022-12-11T14:38:35.018Z,99096.13
2022-12-11T14:41:08.181Z,99102.13
2022-12-11T14:43:45.323Z,99101.72
2022-12-11T14:46:21.409Z,99104.63
2022-12-11T14:49:03.815Z,99101.09
2022-12-11T14:51:39.767Z,99099.03
2022-12-11T14:54:08.453Z,99102.56
2022-12-11T14:56:36.273Z,99099.44
2022-12-11T14:59:09.286Z,99101.09
2022-12-11T15:01:39.535Z,99101.69
2022-12-11T15:04:24.962Z,99104.63
2022-12-11T15:06:52.604Z,99100.84
2022-12-11T15:09:29.889Z,99097.50
2022-12-11T15:12:10.668Z,99097.09
2022-12-11T15:14:55.652Z,99097.56
2022-12-11T15:17:24.159Z,99098.78
2022-12-11T15:19:57.190Z,99098.84
2022-12-11T15:22:30.550Z,99099.44
2022-12-11T15:25:03.719Z,99099.66
2022-12-11T15:27:36.981Z,99097.81
2022-12-11T15:30:16.118Z,99092.59
2022-12-11T15:32:43.058Z,99092.41
2022-12-11T15:35:27.930Z,99100.94
2022-12-11T15:38:01.142Z,99097.81
2022-12-11T15:40:29.297Z,99100.97
2022-12-11T15:42:57.004Z,99092.88
2022-12-11T15:45:28.661Z,99098.72
2022-12-11T15:47:55.727Z,99096.44
2022-12-11T15:50:29.624Z,99099.34
2022-12-11T15:52:57.266Z,99097.69
2022-12-11T15:55:30.039Z,99105.59
2022-12-11T15:58:14.206Z,99106.19
2022-12-11T16:00:43.594Z,99095.38
2022-12-11T16:03:17.802Z,99103.50
2022-12-11T16:05:44.779Z,99099.34
2022-12-11T16:08:16.993Z,99100.19
2022-12-11T16:10:45.748Z,99101.03
2022-12-11T16:13:13.422Z,99097.91
2022-12-11T16:15:46.153Z,99107.88
2022-12-11T16:18:16.323Z,99111.41
2022-12-11T16:20:45.122Z,99108.50
2022-12-11T16:23:13.493Z,99113.28
2022-12-11T16:25:41.885Z,99107.25
2022-12-11T16:28:10.679Z,99111.00
2022-12-11T16:30:38.447Z,99113.09
2022-12-11T16:33:12.141Z,99110.16
2022-12-11T16:36:03.811Z,99101.84
2022-12-11T16:38:30.563Z,99110.78
2022-12-11T16:41:12.552Z,99115.78
2022-12-11T16:43:40.404Z,99107.69
2022-12-11T16:46:07.449Z,99106.41
2022-12-11T16:48:34.502Z,99107.25
2022-12-11T16:51:01.587Z,99114.94
2022-12-11T16:53:28.300Z,99117.66
2022-12-11T16:55:55.906Z,99118.50
2022-12-11T16:58:22.788Z,99105.16
2022-12-11T17:00:49.963Z,99113.09
2022-12-11T17:03:18.166Z,99115.78
2022-12-11T17:05:45.489Z,99118.69
2022-12-11T17:08:12.298Z,99113.28
2022-12-11T17:10:41.179Z,99117.66
2022-12-11T17:13:08.372Z,99119.31
2022-12-11T17:15:42.572Z,99111.00
2022-12-11T17:18:10.788Z,99112.66
2022-12-11T17:20:42.371Z,99110.16
2022-12-11T17:23:11.174Z,99111.59
2022-12-11T17:25:42.985Z,99111.41
2022-12-11T17:28:11.242Z,99110.56
2022-12-11T17:30:45.528Z,99110.78
2022-12-11T17:33:12.803Z,99106.00
2022-12-11T17:35:39.946Z,99108.06
2022-12-11T17:38:20.400Z,99109.97
2022-12-11T17:41:35.480Z,99103.94
2022-12-11T17:44:37.246Z,99106.63
2022-12-11T17:47:15.729Z,99100.19
2022-12-11T17:49:48.844Z,99110.16
2022-12-11T17:59:19.644Z,99120.13
2022-12-11T18:05:58.793Z,99125.34
2022-12-11T18:08:41.059Z,99122.44
2022-12-11T18:11:16.648Z,99117.88
2022-12-11T18:14:24.256Z,99130.75
2022-12-11T18:16:57.084Z,99124.28
2022-12-11T18:19:31.097Z,99134.88
2022-12-11T18:27:03.903Z,99130.31
2022-12-11T18:36:52.200Z,99131.34
2022-12-11T18:49:09.657Z,99133.22
2022-12-11T19:09:24.274Z,99127.59
2022-12-11T19:12:00.307Z,99134.66
2022-12-11T19:17:33.391Z,99138.38
2022-12-11T19:20:18.812Z,99142.56
2022-12-11T19:22:47.649Z,99132.59
2022-12-11T19:25:14.544Z,99145.47
2022-12-11T19:27:41.411Z,99148.75
2022-12-11T19:30:11.820Z,99145.44
2022-12-11T19:32:38.672Z,99154.38
2022-12-11T19:35:16.787Z,99148.78
2022-12-11T19:37:49.733Z,99148.78
2022-12-11T19:40:16.685Z,99144.44
2022-12-11T19:42:46.592Z,99146.09
2022-12-11T19:45:14.347Z,99137.16
2022-12-11T19:47:44.773Z,99140.50
2022-12-11T19:50:11.450Z,99137.78
2022-12-11T19:52:42.873Z,99135.94
2022-12-11T19:55:15.211Z,99140.25
2022-12-11T19:57:41.943Z,99136.31
2022-12-11T20:00:09.052Z,99144.00
2022-12-11T20:02:35.815Z,99144.44
2022-12-11T20:05:02.495Z,99140.06
2022-12-11T20:07:30.820Z,99142.97
2022-12-11T20:10:00.258Z,99138.19
2022-12-11T20:12:27.231Z,99145.47
2022-12-11T20:14:54.111Z,99145.47
2022-12-11T20:17:21.322Z,99148.34
2022-12-11T20:19:48.570Z,99149.16
2022-12-11T20:22:15.454Z,99143.56
2022-12-11T20:24:42.134Z,99157.91
2022-12-11T20:27:09.641Z,99149.81
2022-12-11T20:29:37.444Z,99149.56
2022-12-11T20:32:05.098Z,99147.69
2022-12-11T20:34:32.384Z,99147.91
2022-12-11T20:37:00.453Z,99152.47
2022-12-11T20:39:27.160Z,99143.31
2022-12-11T20:41:53.973Z,99148.69
2022-12-11T20:44:21.022Z,99151.00
2022-12-11T20:46:47.961Z,99146.63
2022-12-11T20:49:14.742Z,99144.16
2022-12-11T20:51:41.686Z,99148.13
2022-12-11T20:54:08.725Z,99143.13
2022-12-11T20:56:36.498Z,99136.91
2022-12-11T20:59:03.484Z,99137.50
2022-12-11T21:01:32.290Z,99144.78
2022-12-11T21:03:59.615Z,99152.03
2022-12-11T21:06:32.999Z,99156.41
2022-12-11T21:09:02.129Z,99147.47
2022-12-11T21:11:31.238Z,99143.94
2022-12-11T21:13:58.161Z,99145.00
2022-12-11T21:16:25.718Z,99160.34
2022-12-11T21:18:52.485Z,99161.19
2022-12-11T21:21:19.352Z,99159.97
2022-12-11T21:23:46.117Z,99167.44
2022-12-11T21:26:13.340Z,99163.31
2022-12-11T21:28:41.385Z,99171.19
2022-12-11T21:31:14.056Z,99159.97
2022-12-11T21:33:40.974Z,99167.63
2022-12-11T21:36:11.045Z,99164.94
2022-12-11T21:38:38.688Z,99159.13
2022-12-11T21:41:17.151Z,99156.84
2022-12-11T21:44:32.918Z,99164.13
2022-12-11T21:46:32.241Z,99156.88
2022-12-11T21:48:59.075Z,99157.47
2022-12-11T21:51:37.726Z,99163.09
2022-12-11T21:54:09.275Z,99157.69
2022-12-11T21:56:36.223Z,99166.44
2022-12-11T21:59:04.480Z,99170.38
2022-12-11T22:01:35.272Z,99167.69
2022-12-11T22:04:02.086Z,99166.44
2022-12-11T22:06:28.945Z,99161.22
2022-12-11T22:08:56.158Z,99159.75
2022-12-11T22:11:30.051Z,99169.50
2022-12-11T22:13:57.056Z,99180.94
2022-12-11T22:16:24.227Z,99181.28
2022-12-11T22:18:51.178Z,99184.47
2022-12-11T22:21:18.487Z,99181.97
2022-12-11T22:23:45.234Z,99181.53
2022-12-11T22:26:17.894Z,99186.84
2022-12-11T22:28:44.593Z,99192.69
2022-12-11T22:31:14.390Z,99198.47
2022-12-11T22:33:45.250Z,99191.97
2022-12-11T22:36:13.263Z,99209.94
2022-12-11T22:38:40.049Z,99207.16
2022-12-11T22:41:23.186Z,99201.75
2022-12-11T22:43:50.585Z,99208.44
2022-12-11T22:46:19.242Z,99213.88
2022-12-11T22:48:45.996Z,99207.94
2022-12-11T22:51:13.136Z,99220.00
2022-12-11T22:53:40.933Z,99216.22
2022-12-11T22:56:09.457Z,99215.13
2022-12-11T22:58:36.528Z,99216.38
2022-12-11T23:01:07.958Z,99223.19
2022-12-11T23:03:34.640Z,99215.25
2022-12-11T23:06:05.600Z,99223.22
2022-12-11T23:08:33.172Z,99217.50
2022-12-11T23:11:00.085Z,99220.41
2022-12-11T23:13:26.770Z,99227.06
2022-12-11T23:15:53.504Z,99227.00
2022-12-11T23:18:20.239Z,99228.75
2022-12-11T23:20:47.088Z,99225.50
2022-12-11T23:23:14.206Z,99230.25
2022-12-11T23:25:40.871Z,99236.88
2022-12-11T23:28:07.535Z,99237.94
2022-12-11T23:30:34.287Z,99232.31
2022-12-11T23:33:01.026Z,99236.09
2022-12-11T23:35:27.720Z,99244.75
2022-12-11T23:37:54.370Z,99241.91
2022-12-11T23:40:21.070Z,99244.47
2022-12-11T23:42:47.781Z,99245.47
2022-12-11T23:45:14.771Z,99244.09
2022-12-11T23:47:41.683Z,99242.44
2022-12-11T23:50:08.806Z,99237.44
2022-12-11T23:52:35.661Z,99241.50
2022-12-11T23:55:02.343Z,99239.91
2022-12-11T23:57:28.973Z,99243.66
2022-12-11T23:59:55.619Z,99237.59
